Peligros, Spain
Current Conditions -  °F | °C
As of 1:00 PM on Monday 20 Oct 2014 (Local Time) from LEGR Reporting Station
Clear Clear  
Wind Chill: 81°   Ceiling: Unl
Heat Index: 81°   Visibility: 6mi
Dew Point: 46°   Wind: 1mph
Humidity: 30%   Direction: NA
Pressure: 30.18"   Gusts: NA
Location:  37.23°N, 3.63°W
Report Text: LEGR 201100Z VRB01KT CAVOK 27/08 Q1022
Loading
Personal Weather Stations






























Interactive Weather Map
Tropical Storm Tracking
New forecast layout! Learn more

10-Day Weather Forecast

Advertisements
Track Severe Weather on mobile